createdAt,value
2018-09-26T00:01:05.641Z,94.61
2018-09-26T00:03:33.931Z,93.58
2018-09-26T00:06:02.207Z,93.51
2018-09-26T00:08:31.326Z,94.01
2018-09-26T00:10:59.622Z,95.74
2018-09-26T00:13:27.902Z,99.79
2018-09-26T00:15:56.196Z,97.94
2018-09-26T00:18:24.484Z,100.00
2018-09-26T00:20:52.768Z,98.41
2018-09-26T00:23:21.070Z,100.00
2018-09-26T00:25:49.365Z,98.84
2018-09-26T00:28:17.654Z,100.00
2018-09-26T00:30:45.950Z,100.00
2018-09-26T00:33:14.240Z,100.00
2018-09-26T00:35:42.596Z,99.07
2018-09-26T00:38:10.824Z,100.00
2018-09-26T00:40:39.107Z,100.00
2018-09-26T00:43:07.411Z,100.00
2018-09-26T00:45:35.714Z,100.00
2018-09-26T00:48:04.006Z,100.00
2018-09-26T00:50:32.301Z,100.00
2018-09-26T00:53:00.573Z,100.00
2018-09-26T00:55:28.870Z,100.00
2018-09-26T00:57:57.155Z,100.00
2018-09-26T01:00:25.439Z,100.00
2018-09-26T01:02:53.726Z,99.26
2018-09-26T01:05:22.014Z,99.35
2018-09-26T01:07:50.306Z,97.51
2018-09-26T01:10:18.587Z,96.19
2018-09-26T01:12:46.862Z,97.93
2018-09-26T01:15:15.186Z,100.00
2018-09-26T01:17:43.462Z,100.00
2018-09-26T01:20:11.759Z,100.00
2018-09-26T01:22:40.059Z,100.00
2018-09-26T01:25:08.348Z,100.00
2018-09-26T01:27:36.663Z,100.00
2018-09-26T01:30:04.942Z,100.00
2018-09-26T01:32:33.250Z,100.00
2018-09-26T01:35:01.548Z,100.00
2018-09-26T01:37:29.835Z,100.00
2018-09-26T01:39:58.127Z,100.00
2018-09-26T01:42:26.415Z,100.00
2018-09-26T01:44:54.727Z,100.00
2018-09-26T01:47:23.010Z,100.00
2018-09-26T01:49:52.279Z,100.00
2018-09-26T01:52:20.578Z,100.00
2018-09-26T01:54:48.883Z,100.00
2018-09-26T01:57:17.174Z,100.00
2018-09-26T01:59:45.466Z,100.00
2018-09-26T02:02:13.772Z,100.00
2018-09-26T02:04:42.051Z,100.00
2018-09-26T02:07:10.331Z,100.00
2018-09-26T02:09:38.627Z,100.00
2018-09-26T02:12:06.912Z,100.00
2018-09-26T02:14:35.226Z,100.00
2018-09-26T02:17:03.510Z,100.00
2018-09-26T02:19:31.813Z,100.00
2018-09-26T02:22:00.095Z,100.00
2018-09-26T02:24:28.382Z,100.00
2018-09-26T02:26:56.676Z,100.00
2018-09-26T02:29:25.063Z,100.00
2018-09-26T02:31:53.358Z,100.00
2018-09-26T02:34:21.635Z,100.00
2018-09-26T02:36:49.930Z,100.00
2018-09-26T02:39:18.213Z,100.00
2018-09-26T02:41:46.502Z,100.00
2018-09-26T02:44:14.786Z,100.00
2018-09-26T02:46:43.083Z,100.00
2018-09-26T02:49:11.470Z,100.00
2018-09-26T02:51:39.727Z,100.00
2018-09-26T02:54:08.026Z,100.00
2018-09-26T02:56:36.309Z,100.00
2018-09-26T02:59:04.602Z,100.00
2018-09-26T03:01:32.891Z,100.00
2018-09-26T03:04:01.186Z,100.00
2018-09-26T03:06:29.462Z,100.00
2018-09-26T03:08:57.781Z,100.00
2018-09-26T03:11:26.225Z,100.00
2018-09-26T03:13:54.503Z,100.00
2018-09-26T03:16:22.795Z,100.00
2018-09-26T03:18:51.091Z,100.00
2018-09-26T03:21:19.371Z,100.00
2018-09-26T03:23:47.655Z,100.00
2018-09-26T03:26:15.942Z,100.00
2018-09-26T03:28:44.228Z,100.00
2018-09-26T03:31:12.530Z,100.00
2018-09-26T03:33:40.888Z,100.00
2018-09-26T03:36:09.119Z,100.00
2018-09-26T03:38:37.396Z,100.00
2018-09-26T03:41:05.679Z,100.00
2018-09-26T03:43:33.978Z,100.00
2018-09-26T03:46:02.304Z,100.00
2018-09-26T03:48:30.576Z,100.00
2018-09-26T03:50:58.862Z,100.00
2018-09-26T03:53:27.197Z,100.00
2018-09-26T03:55:55.481Z,100.00
2018-09-26T03:58:23.779Z,100.00
2018-09-26T04:00:52.067Z,100.00
2018-09-26T04:03:20.385Z,100.00
2018-09-26T04:05:48.682Z,100.00
2018-09-26T04:08:16.975Z,100.00
2018-09-26T04:10:45.274Z,100.00
2018-09-26T04:13:13.644Z,100.00
2018-09-26T04:15:41.873Z,100.00
2018-09-26T04:18:10.143Z,100.00
2018-09-26T04:20:38.416Z,100.00
2018-09-26T04:23:06.722Z,100.00
2018-09-26T04:25:35.002Z,100.00
2018-09-26T04:28:03.341Z,100.00
2018-09-26T04:30:31.678Z,100.00
2018-09-26T04:33:00.099Z,100.00
2018-09-26T04:35:28.179Z,100.00
2018-09-26T04:37:56.471Z,100.00
2018-09-26T04:40:24.762Z,100.00
2018-09-26T04:42:53.046Z,100.00
2018-09-26T04:45:21.358Z,100.00
2018-09-26T04:47:49.639Z,100.00
2018-09-26T04:50:17.951Z,100.00
2018-09-26T04:52:46.230Z,100.00
2018-09-26T04:55:14.523Z,100.00
2018-09-26T04:57:44.446Z,100.00
2018-09-26T05:00:12.998Z,100.00
2018-09-26T05:02:41.354Z,100.00
2018-09-26T05:05:09.636Z,100.00
2018-09-26T05:07:37.927Z,100.00
2018-09-26T05:10:06.207Z,100.00
2018-09-26T05:12:34.500Z,100.00
2018-09-26T05:15:02.782Z,100.00
2018-09-26T05:17:31.074Z,100.00
2018-09-26T05:19:59.350Z,100.00
2018-09-26T05:22:27.646Z,100.00
2018-09-26T05:24:55.930Z,100.00
2018-09-26T05:27:24.214Z,100.00
2018-09-26T05:29:52.510Z,100.00
2018-09-26T05:32:20.796Z,100.00
2018-09-26T05:34:49.099Z,100.00
2018-09-26T05:37:17.387Z,100.00
2018-09-26T05:39:45.686Z,100.00
2018-09-26T05:42:13.971Z,100.00
2018-09-26T05:44:42.263Z,100.00
2018-09-26T05:47:10.561Z,100.00
2018-09-26T05:49:38.834Z,100.00
2018-09-26T05:52:07.148Z,100.00
2018-09-26T05:54:35.450Z,100.00
2018-09-26T05:57:03.742Z,100.00
2018-09-26T05:59:32.071Z,100.00
2018-09-26T06:02:00.322Z,100.00
2018-09-26T06:04:28.613Z,100.00
2018-09-26T06:06:56.914Z,100.00
2018-09-26T06:09:25.197Z,100.00
2018-09-26T06:11:53.503Z,100.00
2018-09-26T06:14:21.794Z,100.00
2018-09-26T06:16:50.100Z,100.00
2018-09-26T06:19:18.451Z,100.00
2018-09-26T06:21:46.722Z,100.00
2018-09-26T06:24:15.030Z,100.00
2018-09-26T06:26:43.322Z,100.00
2018-09-26T06:29:11.622Z,100.00
2018-09-26T06:31:39.915Z,100.00
2018-09-26T06:34:08.227Z,100.00
2018-09-26T06:36:36.524Z,100.00
2018-09-26T06:39:04.847Z,100.00
2018-09-26T06:41:33.140Z,100.00
2018-09-26T06:44:01.435Z,100.00
2018-09-26T06:46:29.736Z,100.00
2018-09-26T06:48:58.020Z,99.77
2018-09-26T06:51:26.314Z,100.00
2018-09-26T06:53:54.659Z,98.45
2018-09-26T06:56:22.918Z,96.92
2018-09-26T06:58:51.216Z,94.88
2018-09-26T07:01:19.484Z,95.51
2018-09-26T07:03:47.782Z,96.41
2018-09-26T07:06:16.063Z,96.95
2018-09-26T07:08:44.359Z,94.48
2018-09-26T07:11:12.644Z,91.53
2018-09-26T07:13:40.942Z,92.40
2018-09-26T07:16:09.232Z,93.23
2018-09-26T07:18:37.534Z,93.35
2018-09-26T07:21:05.834Z,89.68
2018-09-26T07:23:34.122Z,92.49
2018-09-26T07:26:02.418Z,88.67
2018-09-26T07:28:30.699Z,84.40
2018-09-26T07:30:58.992Z,89.14
2018-09-26T07:33:27.274Z,86.55
2018-09-26T07:35:55.571Z,84.51
2018-09-26T07:38:23.861Z,83.91
2018-09-26T07:40:52.138Z,82.42
2018-09-26T07:43:20.430Z,82.65
2018-09-26T07:45:48.768Z,83.70
2018-09-26T07:48:16.994Z,83.08
2018-09-26T07:50:45.274Z,81.28
2018-09-26T07:53:13.564Z,78.47
2018-09-26T07:55:41.847Z,79.40
2018-09-26T07:58:10.130Z,79.71
2018-09-26T08:00:38.413Z,79.45
2018-09-26T08:03:06.690Z,78.73
2018-09-26T08:05:34.991Z,77.87
2018-09-26T08:08:03.263Z,74.38
2018-09-26T08:10:31.559Z,75.08
2018-09-26T08:12:59.857Z,74.55
2018-09-26T08:15:28.157Z,75.30
2018-09-26T08:17:56.432Z,74.82
2018-09-26T08:20:24.763Z,72.00
2018-09-26T08:22:53.054Z,70.67
2018-09-26T08:25:21.347Z,71.14
2018-09-26T08:27:49.640Z,73.16
2018-09-26T08:30:17.927Z,68.98
2018-09-26T08:32:46.222Z,66.80
2018-09-26T08:35:14.503Z,64.17
2018-09-26T08:37:42.803Z,65.55
2018-09-26T08:40:11.089Z,64.57
2018-09-26T08:42:39.375Z,64.52
2018-09-26T08:45:07.683Z,68.00
2018-09-26T08:47:36.004Z,66.11
2018-09-26T08:50:04.282Z,64.06
2018-09-26T08:52:32.570Z,65.71
2018-09-26T08:55:00.879Z,65.18
2018-09-26T08:57:29.158Z,62.69
2018-09-26T08:59:57.560Z,64.43
2018-09-26T09:02:25.855Z,64.12
2018-09-26T09:04:54.134Z,64.56
2018-09-26T09:07:22.427Z,64.12
2018-09-26T09:09:50.742Z,65.79
2018-09-26T09:12:19.038Z,65.39
2018-09-26T09:14:47.520Z,62.42
2018-09-26T09:17:15.604Z,62.59
2018-09-26T09:19:43.898Z,62.69
2018-09-26T09:22:12.186Z,62.31
2018-09-26T09:24:40.504Z,62.66
2018-09-26T09:27:08.880Z,61.13
2018-09-26T09:29:37.108Z,61.29
2018-09-26T09:32:05.442Z,61.17
2018-09-26T09:34:33.707Z,61.20
2018-09-26T09:37:01.975Z,60.94
2018-09-26T09:39:30.254Z,60.53
2018-09-26T09:41:58.546Z,59.29
2018-09-26T09:44:26.861Z,58.77
2018-09-26T09:46:55.139Z,58.78
2018-09-26T09:49:23.445Z,59.89
2018-09-26T09:51:51.727Z,56.24
2018-09-26T09:54:20.019Z,56.67
2018-09-26T09:56:48.415Z,57.85
2018-09-26T09:59:16.675Z,56.83
2018-09-26T10:01:44.954Z,56.13
2018-09-26T10:04:13.250Z,56.90
2018-09-26T10:06:41.559Z,56.91
2018-09-26T10:09:09.860Z,55.61
2018-09-26T10:11:38.152Z,57.77
2018-09-26T10:14:06.456Z,53.99
2018-09-26T10:16:34.731Z,54.93
2018-09-26T10:19:03.016Z,58.15
2018-09-26T10:21:31.301Z,54.57
2018-09-26T10:23:59.584Z,56.53
2018-09-26T10:26:27.881Z,53.95
2018-09-26T10:28:56.163Z,54.62
2018-09-26T10:31:24.455Z,53.48
2018-09-26T10:33:52.736Z,52.82
2018-09-26T10:36:21.034Z,53.94
2018-09-26T10:38:49.323Z,53.20
2018-09-26T10:41:17.610Z,54.28
2018-09-26T10:43:45.899Z,53.62
2018-09-26T10:46:14.174Z,52.27
2018-09-26T10:48:42.463Z,52.01
2018-09-26T10:51:10.750Z,51.60
2018-09-26T10:53:39.040Z,52.45
2018-09-26T10:56:07.428Z,52.75
2018-09-26T10:58:35.650Z,49.75
2018-09-26T11:01:03.940Z,49.59
2018-09-26T11:03:32.291Z,50.87
2018-09-26T11:06:00.622Z,52.22
2018-09-26T11:08:29.108Z,51.40
2018-09-26T11:10:57.370Z,51.76
2018-09-26T11:13:25.660Z,50.77
2018-09-26T11:15:53.950Z,52.61
2018-09-26T11:18:22.278Z,49.43
2018-09-26T11:20:50.566Z,50.34
2018-09-26T11:23:18.846Z,50.11
2018-09-26T11:25:47.136Z,48.92
2018-09-26T11:28:15.449Z,50.28
2018-09-26T11:30:43.703Z,52.00
2018-09-26T11:33:12.029Z,50.21
2018-09-26T11:35:40.295Z,50.65
2018-09-26T11:38:08.601Z,50.73
2018-09-26T11:40:36.850Z,50.81
2018-09-26T11:43:05.145Z,49.20
2018-09-26T11:45:33.421Z,49.85
2018-09-26T11:48:01.827Z,48.15
2018-09-26T11:50:30.086Z,48.08
2018-09-26T11:52:58.410Z,49.76
2018-09-26T11:55:26.690Z,50.06
2018-09-26T11:57:54.979Z,49.02
2018-09-26T12:00:23.288Z,51.06
2018-09-26T12:02:51.591Z,49.57
2018-09-26T12:05:19.959Z,49.97
2018-09-26T12:07:48.287Z,48.96
2018-09-26T12:10:16.629Z,48.18
2018-09-26T12:12:44.926Z,49.51
2018-09-26T12:15:13.212Z,47.95
2018-09-26T12:17:41.494Z,49.62
2018-09-26T12:20:10.013Z,46.48
2018-09-26T12:22:38.387Z,48.38
2018-09-26T12:25:06.722Z,47.74
2018-09-26T12:27:34.962Z,47.11
2018-09-26T12:30:03.303Z,46.42
2018-09-26T12:32:31.596Z,47.03
2018-09-26T12:34:59.950Z,47.54
2018-09-26T12:37:28.235Z,48.29
2018-09-26T12:39:56.515Z,47.67
2018-09-26T12:42:24.836Z,48.18
2018-09-26T12:44:53.092Z,47.63
2018-09-26T12:47:21.435Z,47.79
2018-09-26T12:49:49.659Z,48.29
2018-09-26T12:52:17.994Z,47.03
2018-09-26T12:54:46.235Z,47.51
2018-09-26T12:57:14.511Z,48.75
2018-09-26T12:59:42.784Z,46.88
2018-09-26T13:02:11.133Z,46.50
2018-09-26T13:04:39.358Z,46.83
2018-09-26T13:07:07.696Z,45.74
2018-09-26T13:09:36.044Z,47.44
2018-09-26T13:12:04.332Z,46.34
2018-09-26T13:14:32.636Z,46.19
2018-09-26T13:17:00.948Z,45.07
2018-09-26T13:19:29.228Z,44.84
2018-09-26T13:21:57.502Z,45.17
2018-09-26T13:24:25.940Z,44.82
2018-09-26T13:26:54.140Z,43.65
2018-09-26T13:29:22.402Z,45.67
2018-09-26T13:31:50.678Z,46.16
2018-09-26T13:34:19.095Z,44.96
2018-09-26T13:36:47.283Z,45.68
2018-09-26T13:39:15.602Z,45.41
2018-09-26T13:41:43.856Z,44.41
2018-09-26T13:44:12.206Z,45.47
2018-09-26T13:46:40.487Z,44.16
2018-09-26T13:49:08.763Z,44.81
2018-09-26T13:51:37.088Z,44.56
2018-09-26T13:54:05.408Z,44.63
2018-09-26T13:56:33.614Z,44.15
2018-09-26T13:59:01.927Z,45.81
2018-09-26T14:01:30.213Z,43.20
2018-09-26T14:03:58.564Z,44.16
2018-09-26T14:06:26.810Z,42.80
2018-09-26T14:08:55.116Z,42.81
2018-09-26T14:11:23.394Z,41.93
2018-09-26T14:13:51.690Z,41.76
2018-09-26T14:16:20.083Z,43.75
2018-09-26T14:18:48.360Z,44.39
2018-09-26T14:21:16.650Z,42.51
2018-09-26T14:23:44.934Z,43.82
2018-09-26T14:26:13.222Z,44.71
2018-09-26T14:28:41.503Z,43.51
2018-09-26T14:31:09.831Z,45.95
2018-09-26T14:33:38.077Z,43.89
2018-09-26T14:36:06.411Z,42.87
2018-09-26T14:38:34.647Z,42.39
2018-09-26T14:41:02.927Z,44.85
2018-09-26T14:43:31.222Z,43.51
2018-09-26T14:45:59.554Z,44.49
2018-09-26T14:48:27.791Z,46.21
2018-09-26T14:50:56.071Z,44.07
2018-09-26T14:53:24.399Z,43.72
2018-09-26T14:55:52.638Z,46.97
2018-09-26T14:58:20.952Z,45.35
2018-09-26T15:00:49.297Z,42.93
2018-09-26T15:03:17.623Z,42.43
2018-09-26T15:05:45.919Z,42.69
2018-09-26T15:08:14.220Z,43.94
2018-09-26T15:10:42.494Z,43.81
2018-09-26T15:13:10.779Z,43.85
2018-09-26T15:15:39.078Z,45.85
2018-09-26T15:18:07.425Z,45.72
2018-09-26T15:20:35.764Z,45.21
2018-09-26T15:23:03.958Z,46.25
2018-09-26T15:25:32.291Z,46.95
2018-09-26T15:28:00.659Z,45.68
2018-09-26T15:30:28.923Z,47.06
2018-09-26T15:32:57.211Z,46.79
2018-09-26T15:35:25.557Z,45.46
2018-09-26T15:37:53.780Z,45.70
2018-09-26T15:40:22.094Z,46.52
2018-09-26T15:42:50.330Z,45.02
2018-09-26T15:45:18.679Z,47.29
2018-09-26T15:47:46.952Z,46.62
2018-09-26T15:50:15.346Z,44.80
2018-09-26T15:52:43.599Z,45.96
2018-09-26T15:55:11.960Z,45.24
2018-09-26T15:57:40.254Z,44.64
2018-09-26T16:00:08.603Z,44.21
2018-09-26T16:02:36.830Z,44.60
2018-09-26T16:05:05.141Z,45.03
2018-09-26T16:07:33.450Z,45.87
2018-09-26T16:10:01.747Z,47.30
2018-09-26T16:12:30.037Z,46.45
2018-09-26T16:14:58.319Z,44.25
2018-09-26T16:17:26.960Z,47.52
2018-09-26T16:19:56.192Z,46.74
2018-09-26T16:22:24.618Z,46.78
2018-09-26T16:24:53.159Z,48.24
2018-09-26T16:27:21.438Z,49.69
2018-09-26T16:29:49.727Z,47.06
2018-09-26T16:32:18.033Z,49.27
2018-09-26T16:34:46.323Z,50.95
2018-09-26T16:37:14.594Z,50.08
2018-09-26T16:39:42.894Z,52.12
2018-09-26T16:42:11.233Z,51.70
2018-09-26T16:44:39.466Z,52.13
2018-09-26T16:47:07.762Z,53.31
2018-09-26T16:49:36.070Z,50.08
2018-09-26T16:52:04.378Z,52.80
2018-09-26T16:54:32.732Z,53.94
2018-09-26T16:57:01.030Z,54.35
2018-09-26T16:59:29.319Z,51.84
2018-09-26T17:01:58.581Z,53.97
2018-09-26T17:04:26.966Z,55.41
2018-09-26T17:06:55.373Z,55.46
2018-09-26T17:09:23.467Z,56.71
2018-09-26T17:11:51.764Z,55.66
2018-09-26T17:14:20.107Z,57.87
2018-09-26T17:16:48.358Z,58.02
2018-09-26T17:19:16.752Z,58.52
2018-09-26T17:21:44.995Z,60.15
2018-09-26T17:24:13.323Z,61.75
2018-09-26T17:30:13.178Z,61.18
2018-09-26T17:32:41.433Z,62.09
2018-09-26T17:35:09.717Z,64.71
2018-09-26T17:37:38.020Z,64.80
2018-09-26T17:40:06.347Z,64.91
2018-09-26T17:42:34.599Z,63.41
2018-09-26T17:45:02.908Z,66.30
2018-09-26T17:47:31.203Z,67.32
2018-09-26T17:49:59.488Z,66.17
2018-09-26T17:52:27.777Z,68.14
2018-09-26T17:54:56.068Z,68.73
2018-09-26T17:57:24.342Z,70.01
2018-09-26T17:59:52.641Z,69.89
2018-09-26T18:02:20.933Z,70.17
2018-09-26T18:04:49.231Z,71.04
2018-09-26T18:07:17.507Z,71.89
2018-09-26T18:09:45.791Z,70.63
2018-09-26T18:12:14.083Z,69.95
2018-09-26T18:14:42.355Z,73.02
2018-09-26T18:17:10.671Z,72.08
2018-09-26T18:19:38.960Z,70.55
2018-09-26T18:22:07.250Z,67.94
2018-09-26T18:24:35.634Z,68.48
2018-09-26T18:27:03.915Z,71.05
2018-09-26T18:29:32.202Z,72.23
2018-09-26T18:32:00.483Z,71.94
2018-09-26T18:34:28.771Z,73.01
2018-09-26T18:36:57.054Z,73.75
2018-09-26T18:39:25.382Z,75.39
2018-09-26T18:41:53.869Z,76.29
2018-09-26T18:44:22.298Z,78.13
2018-09-26T18:46:50.592Z,77.00
2018-09-26T18:49:18.879Z,78.24
2018-09-26T18:51:47.172Z,80.41
2018-09-26T18:54:15.468Z,81.33
2018-09-26T18:56:43.767Z,79.41
2018-09-26T18:59:12.048Z,77.92
2018-09-26T19:01:40.359Z,82.08
2018-09-26T19:04:08.660Z,85.69
2018-09-26T19:06:36.944Z,86.32
2018-09-26T19:09:05.357Z,85.47
2018-09-26T19:11:34.427Z,84.49
2018-09-26T19:14:02.734Z,82.95
2018-09-26T19:16:32.007Z,83.61
2018-09-26T19:19:00.298Z,84.56
2018-09-26T19:21:28.677Z,86.16
2018-09-26T19:23:57.131Z,86.12
2018-09-26T19:26:25.422Z,85.50
2018-09-26T19:28:53.700Z,85.49
2018-09-26T19:31:21.999Z,87.45
2018-09-26T19:33:50.282Z,85.65
2018-09-26T19:36:18.599Z,86.65
2018-09-26T19:38:46.855Z,90.35
2018-09-26T19:41:15.139Z,88.83
2018-09-26T19:43:43.479Z,89.14
2018-09-26T19:46:11.716Z,89.68
2018-09-26T19:48:40.083Z,89.80
2018-09-26T19:51:08.416Z,93.09
2018-09-26T19:53:36.635Z,91.22
2018-09-26T19:56:04.969Z,87.73
2018-09-26T19:58:33.203Z,87.91
2018-09-26T20:01:01.495Z,87.31
2018-09-26T20:03:29.897Z,88.17
2018-09-26T20:05:58.179Z,89.45
2018-09-26T20:08:26.458Z,92.66
2018-09-26T20:10:54.742Z,92.31
2018-09-26T20:13:23.029Z,93.70
2018-09-26T20:15:51.310Z,94.39
2018-09-26T20:18:19.607Z,93.77
2018-09-26T20:20:47.890Z,94.85
2018-09-26T20:23:16.311Z,92.71
2018-09-26T20:25:44.527Z,90.29
2018-09-26T20:28:12.891Z,91.21
2018-09-26T20:30:41.182Z,90.30
2018-09-26T20:33:09.491Z,92.57
2018-09-26T20:35:37.848Z,92.48
2018-09-26T20:38:06.078Z,93.12
2018-09-26T20:40:34.372Z,96.51
2018-09-26T20:43:02.654Z,94.28
2018-09-26T20:45:31.006Z,94.78
2018-09-26T20:47:59.235Z,96.89
2018-09-26T20:50:27.518Z,97.74
2018-09-26T20:52:55.819Z,96.47
2018-09-26T20:55:24.098Z,97.48
2018-09-26T20:57:52.403Z,93.98
2018-09-26T21:00:20.695Z,96.34
2018-09-26T21:02:48.974Z,97.07
2018-09-26T21:05:17.262Z,99.89
2018-09-26T21:07:45.567Z,100.00
2018-09-26T21:10:13.867Z,100.00
2018-09-26T21:12:42.155Z,99.97
2018-09-26T21:15:10.456Z,100.00
2018-09-26T21:17:38.783Z,100.00
2018-09-26T21:20:07.071Z,100.00
2018-09-26T21:22:35.395Z,100.00
2018-09-26T21:25:03.690Z,100.00
2018-09-26T21:27:31.987Z,100.00
2018-09-26T21:30:00.278Z,100.00
2018-09-26T21:32:28.622Z,100.00
2018-09-26T21:34:56.916Z,100.00
2018-09-26T21:37:25.226Z,100.00
2018-09-26T21:39:53.525Z,100.00
2018-09-26T21:42:21.816Z,100.00
2018-09-26T21:44:50.118Z,100.00
2018-09-26T21:47:18.430Z,100.00
2018-09-26T21:49:46.731Z,100.00
2018-09-26T21:52:15.151Z,100.00
2018-09-26T21:54:43.443Z,100.00
2018-09-26T21:57:11.748Z,100.00
2018-09-26T21:59:40.035Z,100.00
2018-09-26T22:02:08.340Z,100.00
2018-09-26T22:04:36.634Z,100.00
2018-09-26T22:07:04.939Z,100.00
2018-09-26T22:09:33.231Z,100.00
2018-09-26T22:12:01.519Z,100.00
2018-09-26T22:14:29.818Z,100.00
2018-09-26T22:16:58.111Z,100.00
2018-09-26T22:19:26.408Z,100.00
2018-09-26T22:21:54.708Z,100.00
2018-09-26T22:24:23.838Z,100.00
2018-09-26T22:26:52.123Z,100.00
2018-09-26T22:29:20.427Z,100.00
2018-09-26T22:31:48.723Z,100.00
2018-09-26T22:34:17.123Z,100.00
2018-09-26T22:36:45.429Z,100.00
2018-09-26T22:39:13.855Z,100.00
2018-09-26T22:41:42.158Z,100.00
2018-09-26T22:44:10.454Z,100.00
2018-09-26T22:46:38.750Z,100.00
2018-09-26T22:49:07.042Z,100.00
2018-09-26T22:51:35.329Z,100.00
2018-09-26T22:54:03.639Z,100.00
2018-09-26T22:56:32.011Z,100.00
2018-09-26T22:59:00.296Z,100.00
2018-09-26T23:01:28.652Z,100.00
2018-09-26T23:03:56.935Z,100.00
2018-09-26T23:06:25.303Z,100.00
2018-09-26T23:08:53.606Z,100.00
2018-09-26T23:11:21.894Z,100.00
2018-09-26T23:13:50.168Z,100.00
2018-09-26T23:16:18.455Z,100.00
2018-09-26T23:18:47.162Z,100.00
2018-09-26T23:21:15.487Z,100.00
2018-09-26T23:23:43.760Z,100.00
2018-09-26T23:26:12.062Z,100.00
2018-09-26T23:28:40.390Z,100.00
2018-09-26T23:31:08.654Z,100.00
2018-09-26T23:33:36.955Z,100.00
2018-09-26T23:36:05.334Z,100.00
2018-09-26T23:38:33.623Z,100.00
2018-09-26T23:41:01.913Z,100.00
2018-09-26T23:43:30.200Z,100.00
2018-09-26T23:45:58.550Z,100.00
2018-09-26T23:48:26.839Z,100.00
2018-09-26T23:50:55.187Z,100.00
2018-09-26T23:53:23.475Z,100.00
2018-09-26T23:55:51.790Z,100.00
2018-09-26T23:58:20.065Z,100.00
